Time;durP1;ratioP1;P1;durP2;ratioP2;P2;SDS_P1;SDS_P2;PMS_P1;PMS_P2;Temp;Humidity;BMP_temperature;BMP_pressure;BME280_temperature;BME280_humidity;BME280_pressure;Samples;Min_cycle;Max_cycle;Signal;HPM_P1;HPM_P2
2022/10/13 00:01:28;;;;;;;6.05;5.50;;;17.90;95.30;;;;;;5048307;28;20291;-66
2022/10/13 00:03:54;;;;;;;6.20;5.57;;;17.90;95.40;;;;;;5031731;28;20211;-67
2022/10/13 00:06:24;;;;;;;6.95;6.28;;;17.90;95.30;;;;;;5033279;28;20564;-67
2022/10/13 00:08:51;;;;;;;6.03;5.43;;;17.90;95.40;;;;;;5029010;28;20568;-67
2022/10/13 00:11:26;;;;;;;6.15;5.65;;;17.90;95.40;;;;;;5013325;28;20238;-68
2022/10/13 00:14:00;;;;;;;6.25;5.65;;;17.90;95.40;;;;;;5048788;28;20297;-67
2022/10/13 00:16:29;;;;;;;6.32;5.53;;;17.90;95.40;;;;;;5033554;28;20261;-68
2022/10/13 00:18:55;;;;;;;6.05;5.40;;;17.90;95.40;;;;;;5026146;28;20188;-67
2022/10/13 00:21:25;;;;;;;5.93;5.32;;;17.90;95.40;;;;;;5031598;28;20206;-67
2022/10/13 00:23:53;;;;;;;5.70;5.20;;;17.90;95.30;;;;;;5032041;28;20250;-67
2022/10/13 00:26:22;;;;;;;5.88;5.38;;;17.90;95.30;;;;;;5033564;28;20270;-67
2022/10/13 00:28:49;;;;;;;6.20;5.57;;;17.90;95.30;;;;;;5029843;28;20180;-68
2022/10/13 00:31:24;;;;;;;5.78;5.28;;;17.90;95.30;;;;;;5028349;28;20245;-68
2022/10/13 00:33:50;;;;;;;6.20;5.60;;;17.90;95.30;;;;;;5011885;28;20662;-67
2022/10/13 00:36:18;;;;;;;5.78;5.28;;;17.90;95.40;;;;;;5028583;28;20247;-66
2022/10/13 00:38:45;;;;;;;6.10;5.50;;;17.90;95.40;;;;;;5013187;28;20271;-67
2022/10/13 00:41:11;;;;;;;7.10;5.18;;;17.90;95.30;;;;;;5027919;28;20214;-67
2022/10/13 00:43:54;;;;;;;5.32;4.82;;;17.90;95.50;;;;;;5037447;28;20271;-67
2022/10/13 00:46:22;;;;;;;5.60;5.00;;;17.90;95.50;;;;;;5067986;28;20249;-67
2022/10/13 00:48:59;;;;;;;5.85;5.35;;;17.90;95.50;;;;;;5031027;28;20194;-67
2022/10/13 00:51:32;;;;;;;5.43;4.93;;;17.80;95.40;;;;;;5047442;28;20196;-67
2022/10/13 00:54:00;;;;;;;5.38;4.85;;;17.90;95.50;;;;;;5047705;28;20204;-67
2022/10/13 00:56:28;;;;;;;5.82;5.13;;;17.80;95.50;;;;;;5032512;28;20190;-66
2022/10/13 00:58:55;;;;;;;5.90;5.13;;;17.90;95.50;;;;;;5030989;28;20190;-67
2022/10/13 01:01:21;;;;;;;5.70;5.10;;;17.90;95.60;;;;;;5031917;28;20634;-67
2022/10/13 01:03:47;;;;;;;5.22;4.72;;;17.90;95.50;;;;;;5047731;28;20269;-67
2022/10/13 01:06:14;;;;;;;5.90;5.30;;;17.90;95.60;;;;;;5030873;28;20183;-67
2022/10/13 01:08:40;;;;;;;5.03;4.35;;;17.80;95.50;;;;;;5047549;28;20179;-66
2022/10/13 01:12:00;;;;;;;5.18;4.68;;;17.90;95.60;;;;;;5012546;28;20203;-67
2022/10/13 01:14:42;;;;;;;5.55;4.72;;;17.80;95.60;;;;;;5014073;28;20221;-67
2022/10/13 01:18:00;;;;;;;4.70;4.30;;;17.90;95.80;;;;;;5030815;28;20207;-67
2022/10/13 01:20:49;;;;;;;5.22;4.82;;;17.80;95.60;;;;;;5046897;28;20194;-66
2022/10/13 01:23:52;;;;;;;5.60;4.80;;;17.90;95.70;;;;;;5031764;28;20211;-65
2022/10/13 01:26:53;;;;;;;7.13;5.18;;;17.90;95.80;;;;;;5030650;28;20191;-67
2022/10/13 01:30:20;;;;;;;5.05;4.40;;;17.90;95.80;;;;;;5030533;28;20197;-66
2022/10/13 01:33:04;;;;;;;5.00;4.57;;;17.80;95.70;;;;;;5046673;28;20258;-66
2022/10/13 01:36:12;;;;;;;5.50;4.93;;;17.90;95.90;;;;;;5030440;28;20225;-67
2022/10/13 01:39:04;;;;;;;5.70;4.68;;;17.80;95.80;;;;;;5030616;28;20664;-67
2022/10/13 01:41:37;;;;;;;5.00;4.45;;;17.90;95.80;;;;;;5029977;28;20214;-67
2022/10/13 01:44:35;;;;;;;5.25;4.30;;;17.90;95.80;;;;;;5006165;28;20211;-66
2022/10/13 01:47:02;;;;;;;5.05;4.38;;;17.90;95.80;;;;;;5012326;28;20206;-66
2022/10/13 01:49:34;;;;;;;4.50;4.10;;;17.90;96.20;;;;;;5030089;28;20565;-66
2022/10/13 01:52:05;;;;;;;4.50;4.10;;;17.90;95.90;;;;;;5013112;28;20205;-66
2022/10/13 01:54:32;;;;;;;4.55;4.15;;;17.80;95.80;;;;;;5030301;28;20190;-67
2022/10/13 01:56:58;;;;;;;4.97;4.50;;;17.90;95.80;;;;;;5030133;28;20187;-67
2022/10/13 01:59:28;;;;;;;4.50;3.92;;;17.90;95.90;;;;;;5030070;28;20237;-67
2022/10/13 02:02:20;;;;;;;4.32;3.92;;;17.90;95.90;;;;;;5029585;28;20208;-67
2022/10/13 02:05:07;;;;;;;4.75;4.35;;;17.90;95.90;;;;;;5029715;28;20198;-66
2022/10/13 02:08:05;;;;;;;5.05;4.55;;;17.90;95.90;;;;;;5030196;28;20183;-67
2022/10/13 02:10:44;;;;;;;5.40;4.30;;;17.90;96.00;;;;;;5041028;28;20191;-67
2022/10/13 02:13:14;;;;;;;4.90;4.30;;;17.90;96.00;;;;;;5039261;28;20202;-67
2022/10/13 02:15:48;;;;;;;4.15;3.83;;;17.90;95.90;;;;;;5021495;28;20191;-67
2022/10/13 02:18:19;;;;;;;5.05;4.50;;;17.90;95.90;;;;;;5015263;28;20195;-67
2022/10/13 02:20:46;;;;;;;4.60;4.18;;;17.80;95.90;;;;;;5026478;28;20219;-66
2022/10/13 02:23:16;;;;;;;4.88;4.00;;;17.90;95.90;;;;;;5030701;28;20222;-66
2022/10/13 02:25:43;;;;;;;4.95;4.45;;;17.90;96.00;;;;;;5072607;22;20237;-70
2022/10/13 02:28:11;;;;;;;4.30;3.90;;;17.80;95.90;;;;;;5067654;28;20194;-70
2022/10/13 02:30:43;;;;;;;4.10;3.70;;;17.80;95.90;;;;;;5067553;28;20281;-71
2022/10/13 02:33:10;;;;;;;4.35;3.75;;;17.80;95.90;;;;;;5050802;28;20279;-70
2022/10/13 02:35:36;;;;;;;3.85;3.50;;;17.90;96.00;;;;;;5047605;28;20314;-70
2022/10/13 02:38:02;;;;;;;4.40;4.00;;;17.80;96.00;;;;;;5064175;28;20273;-70
2022/10/13 02:40:28;;;;;;;4.43;4.13;;;17.90;96.00;;;;;;5064307;28;20179;-70
2022/10/13 02:42:54;;;;;;;5.22;4.72;;;17.80;96.00;;;;;;5049776;28;20289;-70
2022/10/13 02:45:20;;;;;;;5.55;4.28;;;17.90;96.00;;;;;;5046658;28;20272;-70
2022/10/13 02:47:47;;;;;;;4.90;4.13;;;17.90;96.10;;;;;;5054633;28;20179;-71
2022/10/13 02:50:13;;;;;;;4.65;4.20;;;17.90;96.00;;;;;;5037897;28;20182;-70
2022/10/13 02:52:39;;;;;;;4.40;3.80;;;17.80;96.00;;;;;;5054915;28;20186;-70
2022/10/13 02:55:06;;;;;;;3.80;3.50;;;17.90;96.10;;;;;;5054624;28;20209;-69
2022/10/13 02:57:32;;;;;;;4.28;3.60;;;17.80;96.00;;;;;;5054415;28;20616;-70
2022/10/13 02:59:58;;;;;;;4.55;3.75;;;17.80;96.00;;;;;;5055615;28;20175;-71
2022/10/13 03:02:27;;;;;;;5.93;3.55;;;17.90;96.10;;;;;;5054406;28;20216;-71
2022/10/13 03:04:53;;;;;;;4.00;3.53;;;17.80;96.00;;;;;;5054578;28;20186;-71
2022/10/13 03:07:19;;;;;;;3.70;3.40;;;17.80;96.10;;;;;;5055766;28;20306;-71
2022/10/13 03:09:45;;;;;;;5.15;4.18;;;17.80;96.00;;;;;;5037808;28;20273;-70
2022/10/13 03:12:11;;;;;;;4.15;3.40;;;17.80;96.00;;;;;;5032915;28;20205;-71
2022/10/13 03:14:37;;;;;;;4.18;3.78;;;17.80;96.00;;;;;;5076055;28;20302;-71
2022/10/13 03:17:03;;;;;;;4.28;3.88;;;17.90;96.00;;;;;;5053972;28;20206;-71
2022/10/13 03:19:29;;;;;;;4.10;3.30;;;17.90;96.00;;;;;;5054449;28;20194;-70
2022/10/13 03:21:55;;;;;;;3.78;3.47;;;17.90;96.00;;;;;;5055233;28;20232;-71
2022/10/13 03:24:21;;;;;;;4.00;3.70;;;17.80;96.00;;;;;;5054311;28;20225;-71
2022/10/13 03:26:46;;;;;;;3.65;3.35;;;17.90;96.00;;;;;;5053872;28;20210;-71
2022/10/13 03:29:15;;;;;;;4.20;3.80;;;17.80;96.10;;;;;;5054005;28;20186;-71
2022/10/13 03:31:41;;;;;;;3.92;3.53;;;17.80;96.00;;;;;;5053865;28;20166;-71
2022/10/13 03:34:09;;;;;;;4.57;3.65;;;17.90;96.20;;;;;;5037278;28;20218;-71
2022/10/13 03:36:35;;;;;;;3.95;3.65;;;17.90;96.00;;;;;;5053743;28;20295;-71
2022/10/13 03:39:01;;;;;;;3.60;3.30;;;17.80;95.90;;;;;;5053778;28;20616;-71
2022/10/13 03:41:26;;;;;;;4.38;3.80;;;17.90;96.50;;;;;;5053657;28;20218;-71
2022/10/13 03:43:53;;;;;;;4.38;3.97;;;17.80;96.10;;;;;;5045251;28;20217;-71
2022/10/13 03:46:19;;;;;;;3.75;3.35;;;17.80;96.10;;;;;;5053854;28;20230;-70
2022/10/13 03:48:46;;;;;;;5.53;3.60;;;17.80;96.10;;;;;;5053758;28;20225;-71
2022/10/13 03:51:19;;;;;;;4.78;3.60;;;17.80;96.10;;;;;;5036719;28;20206;-70
2022/10/13 03:53:47;;;;;;;4.05;3.65;;;17.90;96.10;;;;;;5054881;28;20171;-71
2022/10/13 03:56:17;;;;;;;4.15;3.75;;;17.80;96.10;;;;;;5032947;28;20294;-70
2022/10/13 03:58:53;;;;;;;4.50;3.80;;;17.80;96.10;;;;;;5050166;28;20183;-71
2022/10/13 04:01:25;;;;;;;4.30;3.90;;;17.80;96.00;;;;;;5033607;28;20289;-71
2022/10/13 04:03:55;;;;;;;3.95;3.22;;;17.80;96.00;;;;;;5049966;28;20221;-71
2022/10/13 04:06:23;;;;;;;3.92;3.50;;;17.80;96.40;;;;;;5033124;28;20231;-71
2022/10/13 04:08:49;;;;;;;4.28;3.88;;;17.80;96.10;;;;;;5034609;28;20180;-71
2022/10/13 04:11:16;;;;;;;6.13;3.33;;;17.80;96.00;;;;;;5033062;28;20238;-71
2022/10/13 04:13:43;;;;;;;3.80;3.50;;;17.80;96.10;;;;;;5042276;28;20191;-71
2022/10/13 04:16:20;;;;;;;5.03;4.53;;;17.80;96.00;;;;;;5023755;28;20272;-70
2022/10/13 04:18:52;;;;;;;3.70;3.40;;;17.80;96.10;;;;;;5033498;28;20198;-71
2022/10/13 04:21:19;;;;;;;4.50;4.00;;;17.80;96.10;;;;;;5049563;28;20211;-71
2022/10/13 04:23:44;;;;;;;3.92;3.42;;;17.80;96.10;;;;;;5033163;28;20627;-71
2022/10/13 04:26:17;;;;;;;4.05;3.55;;;17.80;96.10;;;;;;5049254;28;20272;-71
2022/10/13 04:28:45;;;;;;;4.90;3.40;;;17.80;96.10;;;;;;5033327;28;20195;-71
2022/10/13 04:31:11;;;;;;;3.75;3.45;;;17.80;96.10;;;;;;5031001;28;20748;-71
2022/10/13 04:33:37;;;;;;;4.22;3.92;;;17.80;96.10;;;;;;5032603;28;20219;-71
2022/10/13 04:36:10;;;;;;;4.13;3.72;;;17.80;96.10;;;;;;5032741;28;20306;-71
2022/10/13 04:38:35;;;;;;;4.35;3.90;;;17.80;96.10;;;;;;5032625;28;20195;-71
2022/10/13 04:41:06;;;;;;;3.70;3.40;;;17.80;96.10;;;;;;5033868;28;20194;-71
2022/10/13 04:43:33;;;;;;;4.20;3.90;;;17.80;96.10;;;;;;5040144;28;20234;-71
2022/10/13 04:46:06;;;;;;;3.63;3.33;;;17.80;96.10;;;;;;5041040;28;20250;-71
2022/10/13 04:48:32;;;;;;;4.05;3.60;;;17.80;96.10;;;;;;5032869;28;20179;-71
2022/10/13 04:51:11;;;;;;;3.60;3.30;;;17.80;96.20;;;;;;5032364;28;20198;-70
2022/10/13 04:53:38;;;;;;;4.32;3.90;;;17.80;96.00;;;;;;5032437;28;20247;-71
2022/10/13 04:56:10;;;;;;;5.25;3.67;;;17.80;96.10;;;;;;5016124;28;20199;-71
2022/10/13 04:58:37;;;;;;;3.95;3.58;;;17.80;96.20;;;;;;5032726;28;20187;-72
2022/10/13 05:01:06;;;;;;;4.45;3.28;;;17.80;96.10;;;;;;5033522;28;20183;-71
2022/10/13 05:03:33;;;;;;;4.28;3.60;;;17.80;96.10;;;;;;5032249;28;20711;-71
2022/10/13 05:05:59;;;;;;;4.15;3.75;;;17.80;96.10;;;;;;5015574;28;20213;-72
2022/10/13 05:08:25;;;;;;;3.90;3.47;;;17.80;96.10;;;;;;5031494;28;20187;-72
2022/10/13 05:10:56;;;;;;;3.97;3.50;;;17.80;96.20;;;;;;5032278;28;20202;-71
2022/10/13 05:13:24;;;;;;;3.88;3.47;;;17.90;96.30;;;;;;5031958;28;20230;-71
2022/10/13 05:15:50;;;;;;;3.70;3.40;;;17.80;96.20;;;;;;5041800;28;20239;-72
2022/10/13 05:18:20;;;;;;;5.70;3.78;;;17.80;96.20;;;;;;5035002;28;20186;-71
2022/10/13 05:20:46;;;;;;;3.92;3.47;;;17.80;96.30;;;;;;5034508;28;20197;-70
2022/10/13 05:23:13;;;;;;;3.95;3.65;;;17.80;96.10;;;;;;5051217;28;20215;-72
2022/10/13 05:25:39;;;;;;;4.55;3.60;;;17.80;96.10;;;;;;5051240;28;20315;-72
2022/10/13 05:28:09;;;;;;;3.50;3.20;;;17.80;96.10;;;;;;5051481;28;20308;-73
2022/10/13 05:30:35;;;;;;;4.22;3.72;;;17.80;96.10;;;;;;5034498;28;20649;-73
2022/10/13 05:33:01;;;;;;;3.78;3.47;;;17.80;96.10;;;;;;5051222;28;20202;-73
2022/10/13 05:35:27;;;;;;;3.88;3.38;;;17.80;96.10;;;;;;5051202;28;20192;-71
2022/10/13 05:37:52;;;;;;;3.90;3.58;;;17.80;96.20;;;;;;5051068;28;20194;-70
2022/10/13 05:40:21;;;;;;;4.03;3.63;;;17.80;96.20;;;;;;5052277;28;20186;-73
2022/10/13 05:42:51;;;;;;;4.38;3.97;;;17.80;96.30;;;;;;5051003;28;20276;-71
2022/10/13 05:45:20;;;;;;;4.07;3.70;;;17.80;96.20;;;;;;5033621;28;20179;-71
2022/10/13 05:47:46;;;;;;;5.70;3.88;;;17.80;96.20;;;;;;5048849;28;20213;-73
2022/10/13 05:50:12;;;;;;;4.80;3.53;;;17.80;96.20;;;;;;5049473;28;20221;-72
2022/10/13 05:52:39;;;;;;;3.92;3.63;;;17.80;96.20;;;;;;5032792;28;20191;-73
2022/10/13 05:55:11;;;;;;;3.92;3.53;;;17.80;96.10;;;;;;5032612;28;20186;-70
2022/10/13 05:57:41;;;;;;;3.55;3.25;;;17.80;96.10;;;;;;5032437;28;20187;-73
2022/10/13 06:00:15;;;;;;;3.50;3.20;;;17.80;96.10;;;;;;5048651;28;20262;-72
2022/10/13 06:03:16;;;;;;;3.97;3.67;;;17.80;96.10;;;;;;5048760;28;20222;-72
2022/10/13 06:05:46;;;;;;;4.43;3.85;;;17.80;96.00;;;;;;5050426;28;20202;-73
2022/10/13 06:08:15;;;;;;;5.35;3.47;;;17.80;96.10;;;;;;5050622;28;20243;-71
2022/10/13 06:10:44;;;;;;;4.15;3.75;;;17.80;96.10;;;;;;5013966;28;20258;-73
2022/10/13 06:13:10;;;;;;;3.80;3.40;;;17.80;96.20;;;;;;5010866;28;20198;-73
2022/10/13 06:15:35;;;;;;;4.68;3.65;;;17.80;96.10;;;;;;5027386;28;20211;-73
2022/10/13 06:18:05;;;;;;;4.97;3.88;;;17.80;96.10;;;;;;5012008;28;20188;-73
2022/10/13 06:20:31;;;;;;;3.92;3.63;;;17.80;96.10;;;;;;5010858;28;20187;-73
2022/10/13 06:22:57;;;;;;;3.70;3.28;;;17.80;96.10;;;;;;5010827;28;20215;-70
2022/10/13 06:25:22;;;;;;;3.78;3.47;;;17.80;96.10;;;;;;5010909;28;20188;-73
2022/10/13 06:27:48;;;;;;;3.90;3.50;;;17.80;96.10;;;;;;5010861;28;20206;-73
2022/10/13 06:30:14;;;;;;;3.58;3.13;;;17.80;96.00;;;;;;5010677;28;20176;-72
2022/10/13 06:32:39;;;;;;;4.00;3.60;;;17.80;96.00;;;;;;5044047;28;20199;-73
2022/10/13 06:35:06;;;;;;;3.78;3.42;;;17.80;96.00;;;;;;5010951;28;20200;-72
2022/10/13 06:37:32;;;;;;;3.80;3.38;;;17.80;95.90;;;;;;5014204;28;20204;-73
2022/10/13 06:39:57;;;;;;;4.55;3.17;;;17.80;95.90;;;;;;5027276;28;20620;-73
2022/10/13 06:42:23;;;;;;;4.30;3.42;;;17.80;95.90;;;;;;5010449;28;20196;-73
2022/10/13 06:45:07;;;;;;;3.55;3.25;;;17.80;95.90;;;;;;5010810;28;20570;-73
2022/10/13 06:47:33;;;;;;;3.58;3.28;;;17.80;96.10;;;;;;5010485;28;20208;-73
2022/10/13 06:49:59;;;;;;;3.85;3.22;;;17.80;95.90;;;;;;5010759;28;20199;-73
2022/10/13 06:52:25;;;;;;;3.78;3.38;;;17.80;95.90;;;;;;5010666;28;20184;-70
2022/10/13 06:54:50;;;;;;;3.55;3.25;;;17.80;95.90;;;;;;5010764;28;20184;-72
2022/10/13 06:57:16;;;;;;;3.45;3.13;;;17.80;95.90;;;;;;5010563;28;20204;-72
2022/10/13 06:59:43;;;;;;;3.72;3.40;;;17.80;95.80;;;;;;5027171;28;20717;-73
2022/10/13 07:02:10;;;;;;;4.07;3.45;;;17.80;96.20;;;;;;5010376;28;20181;-73
2022/10/13 07:04:35;;;;;;;3.78;3.05;;;17.80;95.90;;;;;;5020916;28;20277;-73
2022/10/13 07:07:01;;;;;;;3.60;3.20;;;17.80;95.90;;;;;;5030441;28;20302;-73
2022/10/13 07:09:27;;;;;;;4.13;3.67;;;17.80;95.90;;;;;;5030305;28;20191;-73
2022/10/13 07:11:53;;;;;;;3.53;3.22;;;17.80;95.90;;;;;;5013504;28;20184;-72
2022/10/13 07:14:19;;;;;;;4.03;3.47;;;17.80;95.90;;;;;;5030262;28;20198;-73
2022/10/13 07:16:47;;;;;;;3.33;2.90;;;17.80;95.80;;;;;;5046479;28;20245;-72
2022/10/13 07:19:13;;;;;;;3.83;3.17;;;17.80;95.90;;;;;;5046671;28;20191;-73
2022/10/13 07:21:40;;;;;;;3.78;2.90;;;17.80;95.90;;;;;;5029882;28;20431;-72
2022/10/13 07:24:06;;;;;;;3.30;3.00;;;17.80;95.80;;;;;;5030162;28;20223;-73
2022/10/13 07:26:32;;;;;;;3.28;3.00;;;17.80;95.80;;;;;;5013397;28;20222;-73
2022/10/13 07:28:59;;;;;;;2.90;2.70;;;17.80;95.70;;;;;;5031216;28;20183;-72
2022/10/13 07:31:25;;;;;;;4.65;3.05;;;17.80;95.70;;;;;;5049434;28;20228;-72
2022/10/13 07:33:51;;;;;;;3.22;2.92;;;17.80;95.70;;;;;;5017324;28;20188;-71
2022/10/13 07:36:18;;;;;;;5.07;3.30;;;17.80;95.60;;;;;;5017057;28;20220;-71
2022/10/13 07:38:45;;;;;;;3.65;3.13;;;17.80;95.50;;;;;;5034758;28;20187;-72
2022/10/13 07:41:12;;;;;;;3.40;3.00;;;17.80;95.50;;;;;;5016966;28;20195;-72
2022/10/13 07:43:39;;;;;;;3.92;3.08;;;17.80;95.50;;;;;;5033339;28;20211;-72
2022/10/13 07:46:06;;;;;;;4.07;3.22;;;17.90;95.60;;;;;;5034887;28;20201;-72
2022/10/13 07:48:33;;;;;;;3.80;3.35;;;17.80;95.50;;;;;;5034454;28;20188;-72
2022/10/13 07:51:11;;;;;;;3.08;2.88;;;17.80;95.50;;;;;;5049737;28;20301;-72
2022/10/13 07:53:39;;;;;;;3.70;2.90;;;17.80;95.60;;;;;;5033210;28;20187;-72
2022/10/13 07:56:09;;;;;;;4.38;3.22;;;17.80;95.60;;;;;;5049478;28;20214;-71
2022/10/13 07:58:37;;;;;;;3.33;3.03;;;17.90;95.60;;;;;;5033290;28;20320;-72
2022/10/13 08:01:04;;;;;;;4.20;3.40;;;17.90;95.60;;;;;;5032867;28;20187;-72
2022/10/13 08:03:33;;;;;;;3.25;2.95;;;17.90;95.60;;;;;;5033030;28;20215;-72
2022/10/13 08:06:01;;;;;;;3.22;2.97;;;17.90;95.60;;;;;;5032849;28;20210;-72
2022/10/13 08:08:28;;;;;;;3.03;2.78;;;17.90;95.50;;;;;;5032926;28;20184;-72
2022/10/13 08:10:54;;;;;;;3.90;3.03;;;17.90;95.50;;;;;;5032928;28;20605;-72
2022/10/13 08:13:22;;;;;;;4.10;2.97;;;17.90;95.50;;;;;;5034001;28;20242;-72
2022/10/13 08:15:48;;;;;;;4.15;3.25;;;17.90;95.90;;;;;;5032915;28;20207;-72
2022/10/13 08:18:14;;;;;;;3.60;3.25;;;17.90;95.50;;;;;;5029735;28;20191;-72
2022/10/13 08:20:42;;;;;;;3.78;3.40;;;17.90;95.60;;;;;;5032667;28;20218;-72
2022/10/13 08:23:08;;;;;;;3.15;2.85;;;17.90;95.60;;;;;;5032746;28;20221;-71
2022/10/13 08:25:46;;;;;;;4.70;3.35;;;17.90;95.50;;;;;;5032941;28;20194;-70
2022/10/13 08:28:23;;;;;;;3.15;2.85;;;17.90;95.50;;;;;;5032741;28;20188;-71
2022/10/13 08:30:56;;;;;;;3.67;3.22;;;17.90;95.40;;;;;;5032398;28;20190;-72
2022/10/13 08:33:23;;;;;;;4.35;2.72;;;17.90;95.40;;;;;;5032412;28;20217;-72
2022/10/13 08:35:49;;;;;;;3.50;3.20;;;17.90;95.40;;;;;;5029316;28;20264;-73
2022/10/13 08:38:16;;;;;;;3.38;3.15;;;18.00;95.40;;;;;;5032520;28;20210;-72
2022/10/13 08:40:49;;;;;;;4.50;3.35;;;17.90;95.30;;;;;;5032213;28;20186;-72
2022/10/13 08:43:21;;;;;;;2.95;2.75;;;18.00;95.40;;;;;;5032274;28;20745;-73
2022/10/13 08:45:58;;;;;;;3.80;2.95;;;18.00;95.30;;;;;;5032204;28;20203;-73
2022/10/13 08:48:31;;;;;;;3.70;3.30;;;18.00;95.40;;;;;;5032289;28;20663;-72
2022/10/13 08:51:05;;;;;;;5.53;3.95;;;18.00;95.50;;;;;;5032026;28;20246;-71
2022/10/13 08:53:44;;;;;;;3.25;2.95;;;18.00;95.70;;;;;;5033327;28;20209;-72
2022/10/13 08:56:26;;;;;;;4.22;3.47;;;18.00;95.60;;;;;;5031945;28;20214;-72
2022/10/13 08:58:55;;;;;;;4.00;3.70;;;18.00;95.80;;;;;;5015465;28;20547;-72
2022/10/13 09:01:28;;;;;;;3.13;2.88;;;18.00;95.70;;;;;;5032991;28;20670;-73
2022/10/13 09:04:07;;;;;;;3.40;2.97;;;18.00;95.80;;;;;;5031677;28;20215;-73
2022/10/13 09:06:36;;;;;;;4.20;2.80;;;18.00;95.80;;;;;;5015320;28;20210;-73
2022/10/13 09:09:10;;;;;;;2.97;2.78;;;18.00;95.60;;;;;;5015549;28;20207;-73
2022/10/13 09:11:49;;;;;;;2.80;2.60;;;18.00;95.60;;;;;;5015429;28;20272;-73
2022/10/13 09:14:28;;;;;;;4.18;3.05;;;18.00;95.50;;;;;;5033095;28;20195;-73
2022/10/13 09:17:10;;;;;;;3.25;2.95;;;18.00;95.60;;;;;;5031661;28;20214;-73
2022/10/13 09:19:36;;;;;;;3.40;3.00;;;18.00;95.60;;;;;;5031813;28;20190;-73
2022/10/13 09:22:36;;;;;;;3.15;2.92;;;18.00;95.60;;;;;;5031505;28;20180;-73
2022/10/13 09:25:19;;;;;;;4.82;3.05;;;18.00;95.60;;;;;;5031570;28;20199;-72
2022/10/13 09:27:55;;;;;;;2.80;2.60;;;18.00;95.70;;;;;;5031588;28;20203;-72
2022/10/13 09:30:41;;;;;;;3.63;3.33;;;18.00;95.80;;;;;;5032662;28;20194;-71
2022/10/13 09:33:12;;;;;;;4.38;3.55;;;18.00;95.80;;;;;;5031308;28;20191;-73
2022/10/13 09:35:55;;;;;;;3.78;3.10;;;18.00;95.80;;;;;;5014769;28;20358;-73
2022/10/13 09:38:26;;;;;;;3.95;3.20;;;18.00;95.80;;;;;;5031536;28;20202;-73
2022/10/13 09:41:10;;;;;;;3.15;2.70;;;18.00;95.90;;;;;;5014578;28;20663;-72
2022/10/13 09:43:46;;;;;;;3.17;2.85;;;18.00;95.90;;;;;;5014542;28;20237;-72
2022/10/13 09:46:45;;;;;;;3.28;2.97;;;18.00;96.00;;;;;;5031131;28;20206;-73
2022/10/13 09:49:42;;;;;;;3.65;3.20;;;18.00;96.30;;;;;;5014836;28;20253;-72
2022/10/13 09:52:10;;;;;;;3.13;2.83;;;18.00;95.90;;;;;;5030926;28;20184;-73
2022/10/13 09:54:39;;;;;;;4.05;2.95;;;18.00;96.00;;;;;;5014546;28;20183;-71
2022/10/13 09:57:24;;;;;;;3.03;2.72;;;18.00;96.40;;;;;;5031336;28;20202;-71
2022/10/13 10:00:22;;;;;;;3.10;2.72;;;18.10;96.10;;;;;;5015199;28;20175;-72
2022/10/13 10:03:06;;;;;;;3.40;3.10;;;18.10;96.10;;;;;;5041657;28;20220;-71
2022/10/13 10:05:57;;;;;;;3.42;2.88;;;18.00;96.00;;;;;;5011922;28;20206;-71
2022/10/13 10:08:45;;;;;;;3.10;2.80;;;18.00;95.90;;;;;;5028001;28;20195;-72
2022/10/13 10:11:17;;;;;;;4.75;3.40;;;18.00;95.90;;;;;;5011282;28;20191;-71
2022/10/13 10:13:43;;;;;;;4.20;3.35;;;18.10;96.50;;;;;;5047957;28;20171;-71
2022/10/13 10:16:18;;;;;;;3.40;3.10;;;18.10;96.60;;;;;;5032424;28;20203;-71
2022/10/13 10:18:48;;;;;;;2.88;2.67;;;18.00;96.30;;;;;;5047663;28;20179;-71
2022/10/13 10:21:23;;;;;;;4.40;3.92;;;18.10;96.30;;;;;;5064213;28;20190;-71
2022/10/13 10:24:13;;;;;;;5.30;4.60;;;18.10;96.40;;;;;;5064387;28;20211;-71
2022/10/13 10:26:58;;;;;;;6.78;5.43;;;18.10;96.30;;;;;;5064153;28;20222;-71
2022/10/13 10:29:39;;;;;;;11.65;8.38;;;18.00;96.60;;;;;;5031036;28;20175;-71
2022/10/13 10:33:00;;;;;;;11.32;8.10;;;18.10;96.40;;;;;;5047460;28;20171;-71
2022/10/13 10:35:39;;;;;;;15.65;10.70;;;18.10;96.10;;;;;;5047755;28;20179;-72
2022/10/13 10:38:50;;;;;;;16.10;11.63;;;18.10;96.10;;;;;;5047521;28;20194;-71
2022/10/13 10:41:54;;;;;;;14.25;11.55;;;18.10;96.20;;;;;;4977152;28;20219;-72
2022/10/13 10:44:40;;;;;;;20.40;14.40;;;18.10;96.00;;;;;;5031309;28;20691;-71
2022/10/13 10:47:17;;;;;;;18.73;12.75;;;18.10;95.90;;;;;;5032101;28;20281;-72
2022/10/13 10:49:43;;;;;;;20.35;13.52;;;18.10;95.80;;;;;;5064573;28;20184;-71
2022/10/13 10:52:19;;;;;;;20.92;14.02;;;18.10;96.00;;;;;;5047338;28;20259;-72
2022/10/13 10:55:18;;;;;;;18.77;13.75;;;18.10;96.00;;;;;;5032426;28;20258;-72
2022/10/13 10:58:04;;;;;;;20.65;14.15;;;18.10;96.00;;;;;;5030641;28;20191;-73
2022/10/13 11:01:08;;;;;;;20.92;15.13;;;18.10;96.10;;;;;;5031795;28;20172;-71
2022/10/13 11:04:29;;;;;;;20.35;13.75;;;18.10;96.00;;;;;;5030520;28;20249;-74
2022/10/13 11:06:54;;;;;;;21.60;14.45;;;18.10;95.90;;;;;;5034071;28;20690;-71
2022/10/13 11:09:39;;;;;;;23.60;15.35;;;18.10;95.70;;;;;;5034670;28;20172;-70
2022/10/13 11:12:21;;;;;;;21.05;13.75;;;18.10;95.70;;;;;;5031920;28;20191;-72
2022/10/13 11:14:53;;;;;;;22.77;14.23;;;18.10;95.60;;;;;;5051392;28;20183;-72
2022/10/13 11:17:32;;;;;;;19.35;14.45;;;18.10;95.70;;;;;;5067682;28;20215;-72
2022/10/13 11:19:59;;;;;;;21.83;14.57;;;18.10;95.70;;;;;;5051089;28;20249;-72
2022/10/13 11:22:28;;;;;;;25.60;15.25;;;18.10;95.70;;;;;;5034348;28;20206;-72
2022/10/13 11:25:21;;;;;;;18.80;12.63;;;18.10;95.70;;;;;;5034526;28;20210;-71
2022/10/13 11:27:47;;;;;;;20.15;13.80;;;18.10;95.60;;;;;;5067609;28;20174;-72
2022/10/13 11:30:40;;;;;;;18.50;13.27;;;18.10;95.50;;;;;;5035323;28;20557;-72
2022/10/13 11:33:37;;;;;;;19.13;13.32;;;18.10;95.60;;;;;;5033480;28;20183;-71
2022/10/13 11:36:48;;;;;;;21.45;13.50;;;18.10;95.60;;;;;;5040472;28;20250;-72
2022/10/13 11:39:34;;;;;;;18.35;12.73;;;18.10;95.70;;;;;;5034255;28;20321;-71
2022/10/13 11:42:54;;;;;;;19.00;13.23;;;18.10;95.70;;;;;;5033774;28;20179;-72
2022/10/13 11:45:49;;;;;;;17.75;12.77;;;18.10;95.60;;;;;;5033767;28;20229;-72
2022/10/13 11:48:30;;;;;;;21.10;14.88;;;18.10;95.60;;;;;;5035042;28;20168;-72
2022/10/13 11:51:24;;;;;;;18.92;12.38;;;18.10;95.60;;;;;;5033821;28;20187;-71
2022/10/13 11:54:02;;;;;;;18.88;13.40;;;18.10;95.60;;;;;;5033743;28;20282;-71
2022/10/13 11:56:52;;;;;;;17.58;12.80;;;18.10;95.90;;;;;;5033441;28;20210;-72
2022/10/13 11:59:32;;;;;;;21.65;13.77;;;18.10;96.10;;;;;;5033590;28;20187;-72
2022/10/13 12:02:10;;;;;;;16.25;12.45;;;18.10;95.80;;;;;;5033281;28;20191;-72
2022/10/13 12:04:38;;;;;;;19.95;13.98;;;18.10;95.70;;;;;;5016772;28;20226;-72
2022/10/13 12:07:09;;;;;;;19.08;12.57;;;18.10;95.80;;;;;;5029022;28;20208;-72
2022/10/13 12:09:52;;;;;;;18.05;12.88;;;18.10;95.90;;;;;;5030212;28;20188;-72
2022/10/13 12:12:22;;;;;;;17.98;13.20;;;18.10;95.80;;;;;;5053365;28;20171;-72
2022/10/13 12:14:52;;;;;;;19.63;14.07;;;18.20;95.80;;;;;;5033325;28;20197;-72
2022/10/13 12:17:27;;;;;;;18.88;14.10;;;18.10;95.80;;;;;;5032966;28;20230;-72
2022/10/13 12:20:15;;;;;;;19.15;13.35;;;18.10;95.60;;;;;;5017043;28;20186;-71
2022/10/13 12:22:51;;;;;;;19.40;14.35;;;18.20;95.70;;;;;;5032973;28;20194;-71
2022/10/13 12:25:20;;;;;;;18.17;13.15;;;18.20;95.90;;;;;;5048889;28;20535;-72
2022/10/13 12:27:53;;;;;;;19.20;13.85;;;18.10;96.00;;;;;;5036324;28;20205;-72
2022/10/13 12:30:37;;;;;;;18.45;13.40;;;18.20;96.10;;;;;;5052971;28;20174;-72
2022/10/13 12:33:24;;;;;;;16.50;13.25;;;18.20;96.00;;;;;;5036187;28;20225;-72
2022/10/13 12:35:50;;;;;;;17.67;13.60;;;18.10;96.00;;;;;;5036113;28;20202;-73
2022/10/13 12:38:19;;;;;;;24.02;14.73;;;18.20;96.10;;;;;;5052752;28;20249;-72
2022/10/13 12:40:48;;;;;;;19.10;14.27;;;18.20;96.10;;;;;;5036187;28;20195;-72
2022/10/13 12:43:23;;;;;;;20.23;14.52;;;18.20;96.20;;;;;;5052517;28;20215;-71
2022/10/13 12:45:50;;;;;;;19.20;13.75;;;18.20;96.20;;;;;;5053825;28;20198;-72
2022/10/13 12:48:35;;;;;;;20.55;14.70;;;18.20;96.10;;;;;;5052927;28;20174;-73
2022/10/13 12:51:27;;;;;;;17.17;13.60;;;18.10;96.10;;;;;;5052746;28;20213;-71
2022/10/13 12:53:53;;;;;;;18.23;13.25;;;18.20;96.30;;;;;;5049574;28;20198;-72
2022/10/13 12:56:31;;;;;;;21.05;14.23;;;18.20;96.10;;;;;;5053621;28;20198;-72
2022/10/13 12:58:58;;;;;;;18.60;14.35;;;18.20;96.30;;;;;;5036170;28;20177;-73
2022/10/13 13:01:33;;;;;;;17.70;13.38;;;18.20;96.50;;;;;;5050374;28;20178;-72
2022/10/13 13:04:15;;;;;;;18.17;13.55;;;18.20;96.50;;;;;;5032621;28;20214;-73
2022/10/13 13:07:02;;;;;;;21.08;14.50;;;18.20;96.70;;;;;;5032411;28;20210;-72
2022/10/13 13:09:33;;;;;;;19.17;13.75;;;18.20;96.60;;;;;;5048883;28;20374;-71
2022/10/13 13:12:10;;;;;;;17.40;13.60;;;18.20;96.40;;;;;;5033293;28;20169;-72
2022/10/13 13:14:50;;;;;;;18.42;13.13;;;18.20;96.40;;;;;;5015741;28;20190;-72
2022/10/13 13:17:15;;;;;;;21.00;13.60;;;18.20;96.50;;;;;;5033253;28;20209;-72